Time;durP1;ratioP1;P1;durP2;ratioP2;P2;SDS_P1;SDS_P2;PMS_P1;PMS_P2;Temp;Humidity;BMP_temperature;BMP_pressure;BME280_temperature;BME280_humidity;BME280_pressure;Samples;Min_cycle;Max_cycle;Signal;HPM_P1;HPM_P2
2021/12/30 00:01:30;;;;;;;12.52;6.00;;;;;;;10.73;93.04;99672.72;5037913;28;20392;-91
2021/12/30 00:03:57;;;;;;;11.07;6.20;;;;;;;10.73;93.09;99670.03;5051420;28;20415;-90
2021/12/30 00:06:24;;;;;;;11.63;6.07;;;;;;;10.73;92.95;99670.03;5048200;28;20090;-90
2021/12/30 00:08:53;;;;;;;9.73;5.25;;;;;;;10.73;92.92;99678.00;5031407;28;20056;-92
2021/12/30 00:11:20;;;;;;;11.60;5.13;;;;;;;10.73;92.90;99672.72;5063572;28;20046;-91
2021/12/30 00:13:47;;;;;;;9.23;5.68;;;;;;;10.72;92.78;99687.81;5068123;28;20127;-91
2021/12/30 00:16:18;;;;;;;8.82;5.03;;;;;;;10.72;92.97;99690.47;5051117;28;20146;-92
2021/12/30 00:18:45;;;;;;;9.95;5.35;;;;;;;10.73;93.21;99696.59;5036470;28;20049;-92
2021/12/30 00:25:45;;;;;;;7.95;4.65;;;;;;;10.68;93.05;99701.50;5051312;28;20375;-93
2021/12/30 00:28:17;;;;;;;13.07;5.60;;;;;;;10.68;93.34;99699.69;5035031;28;20052;-92
2021/12/30 00:30:46;;;;;;;9.38;4.75;;;;;;;10.72;93.50;99697.59;5058172;28;20045;-93
2021/12/30 00:33:14;;;;;;;11.65;4.60;;;;;;;10.76;93.62;99713.13;5036700;28;20067;-91
2021/12/30 00:35:45;;;;;;;8.90;4.50;;;;;;;10.76;93.30;99712.25;5044966;28;20041;-93
2021/12/30 00:38:13;;;;;;;6.95;4.40;;;;;;;10.79;93.71;99717.31;5049775;28;20140;-92
2021/12/30 00:40:40;;;;;;;9.63;4.65;;;;;;;10.81;93.59;99729.47;5065754;28;20098;-92
2021/12/30 00:43:07;;;;;;;9.30;5.13;;;;;;;10.83;93.40;99730.16;5027577;28;20041;-92
2021/12/30 00:45:35;;;;;;;9.32;4.63;;;;;;;10.82;93.64;99736.44;5064736;28;20507;-93
2021/12/30 00:48:05;;;;;;;7.47;3.72;;;;;;;10.83;93.12;99737.28;5032991;28;20047;-91
2021/12/30 00:50:35;;;;;;;6.88;3.60;;;;;;;10.81;93.04;99736.56;5049805;28;20036;-92
2021/12/30 00:53:06;;;;;;;5.85;3.92;;;;;;;10.81;93.16;99745.41;5009672;28;20472;-91
2021/12/30 00:55:34;;;;;;;6.15;3.40;;;;;;;10.80;93.51;99754.34;5039191;28;20044;-92
2021/12/30 00:58:01;;;;;;;6.68;3.58;;;;;;;10.79;93.62;99742.06;5052881;28;20094;-92
2021/12/30 01:04:58;;;;;;;7.13;3.25;;;;;;;10.76;93.27;99752.97;5027528;28;20092;-92
2021/12/30 01:07:25;;;;;;;7.63;3.15;;;;;;;10.79;93.03;99757.16;5047543;28;20120;-92
2021/12/30 01:09:52;;;;;;;4.20;2.72;;;;;;;10.78;92.84;99760.78;5058690;28;20063;-93
2021/12/30 01:12:19;;;;;;;4.30;2.47;;;;;;;10.75;92.80;99763.72;5046211;28;20056;-88
2021/12/30 01:14:47;;;;;;;7.30;2.95;;;;;;;10.76;92.43;99776.88;5012257;28;20127;-88
2021/12/30 01:17:22;;;;;;;5.85;2.67;;;;;;;10.75;92.38;99790.28;5050955;28;20052;-88
2021/12/30 01:19:51;;;;;;;5.28;2.50;;;;;;;10.75;92.04;99790.28;5028570;28;20044;-88
2021/12/30 01:22:24;;;;;;;9.02;3.83;;;;;;;10.73;92.38;99798.34;5029464;28;20044;-88
2021/12/30 01:24:55;;;;;;;8.98;3.75;;;;;;;10.75;92.63;99799.06;5009415;28;20626;-87
2021/12/30 01:27:22;;;;;;;6.53;3.83;;;;;;;10.78;92.83;99803.25;5038263;28;20409;-89
2021/12/30 01:29:49;;;;;;;6.35;3.20;;;;;;;10.79;92.64;99804.97;5040028;28;20068;-88
2021/12/30 01:32:16;;;;;;;7.32;3.90;;;;;;;10.81;93.03;99802.97;5038635;28;20037;-89
2021/12/30 01:34:43;;;;;;;7.90;3.50;;;;;;;10.80;93.06;99810.13;5035028;28;20052;-88
2021/12/30 01:37:12;;;;;;;8.38;3.67;;;;;;;10.83;93.06;99814.31;5039826;28;20128;-89
2021/12/30 01:39:39;;;;;;;7.03;3.58;;;;;;;10.85;93.34;99833.63;5036968;28;20064;-88
2021/12/30 01:42:08;;;;;;;6.97;3.20;;;;;;;10.86;93.18;99833.50;5055922;28;20569;-88
2021/12/30 01:44:34;;;;;;;9.25;3.40;;;;;;;10.83;93.01;99831.09;5042499;28;20106;-88
2021/12/30 01:47:03;;;;;;;6.13;2.78;;;;;;;11.02;93.76;99845.41;5040518;28;20833;-88
2021/12/30 01:49:31;;;;;;;8.13;3.33;;;;;;;10.88;93.55;99846.63;5036001;28;20439;-88
2021/12/30 01:51:58;;;;;;;5.80;3.20;;;;;;;10.89;93.46;99848.31;5041459;28;20822;-88
2021/12/30 01:54:26;;;;;;;6.22;3.50;;;;;;;10.89;93.22;99844.78;5039604;28;20052;-88
2021/12/30 01:56:53;;;;;;;6.70;2.85;;;;;;;10.88;93.30;99851.94;5044665;28;20064;-89
2021/12/30 01:59:22;;;;;;;6.20;3.40;;;;;;;10.88;93.20;99854.59;5044854;28;20544;-88
2021/12/30 02:01:56;;;;;;;7.70;3.10;;;;;;;10.89;93.22;99856.28;5029570;28;20143;-89
2021/12/30 02:04:27;;;;;;;7.50;3.30;;;;;;;10.90;93.39;99867.75;5020797;28;20056;-88
2021/12/30 02:06:55;;;;;;;8.93;3.10;;;;;;;10.89;93.35;99866.06;5063798;28;20052;-88
2021/12/30 02:09:21;;;;;;;3.80;2.47;;;;;;;10.90;93.15;99871.25;5047477;28;20435;-88
2021/12/30 02:11:49;;;;;;;3.63;2.55;;;;;;;10.91;93.14;99870.25;5047083;28;20044;-88
2021/12/30 02:14:16;;;;;;;6.95;3.30;;;;;;;10.90;93.08;99870.41;5045857;28;20041;-88
2021/12/30 02:16:44;;;;;;;7.97;3.08;;;;;;;10.91;93.13;99866.75;5071952;28;20037;-88
2021/12/30 02:19:11;;;;;;;6.00;2.42;;;;;;;10.91;93.32;99869.41;5045345;28;20102;-88
2021/12/30 02:21:40;;;;;;;4.82;2.70;;;;;;;10.91;93.14;99869.41;5044118;28;20044;-89
2021/12/30 02:24:07;;;;;;;5.28;2.72;;;;;;;10.91;92.95;99870.25;5042771;28;20044;-89
2021/12/30 02:26:34;;;;;;;4.72;2.60;;;;;;;10.91;92.90;99866.75;5049848;28;20037;-88
2021/12/30 02:29:00;;;;;;;6.20;2.42;;;;;;;10.89;92.65;99876.69;5030818;28;20472;-88
2021/12/30 02:31:29;;;;;;;4.70;2.45;;;;;;;10.86;92.63;99876.00;5064648;28;20044;-89
2021/12/30 02:33:56;;;;;;;4.20;2.00;;;;;;;10.88;92.65;99882.97;5033325;28;20041;-88
2021/12/30 02:36:32;;;;;;;5.00;2.05;;;;;;;10.82;92.18;99877.22;5050693;28;20036;-88
2021/12/30 02:39:03;;;;;;;5.85;2.15;;;;;;;10.86;92.42;99880.44;5059711;28;20044;-88
2021/12/30 02:41:33;;;;;;;4.32;2.00;;;;;;;10.86;92.27;99881.31;5013679;28;20041;-89
2021/12/30 02:44:02;;;;;;;3.65;2.30;;;;;;;10.85;91.99;99894.72;5017600;28;20056;-88
2021/12/30 02:46:29;;;;;;;5.90;2.30;;;;;;;10.83;91.92;99894.84;5062266;28;20120;-89
2021/12/30 02:48:59;;;;;;;7.15;2.78;;;;;;;10.81;91.80;99894.16;5052996;28;20059;-88
2021/12/30 02:51:26;;;;;;;12.73;2.53;;;;;;;10.84;91.94;99895.72;5078704;28;20049;-88
2021/12/30 02:53:54;;;;;;;8.00;2.50;;;;;;;10.84;91.91;99896.53;5048537;28;20044;-88
2021/12/30 02:56:21;;;;;;;7.20;2.75;;;;;;;10.83;91.85;99894.00;5052922;28;20070;-89
2021/12/30 02:58:48;;;;;;;6.15;2.35;;;;;;;10.84;91.78;99898.34;5060378;28;20036;-88
2021/12/30 03:01:19;;;;;;;6.90;3.35;;;;;;;10.83;91.74;99899.31;5028688;28;20403;-88
2021/12/30 03:03:47;;;;;;;7.45;2.72;;;;;;;10.82;91.78;99901.13;5046437;28;20048;-88
2021/12/30 03:06:15;;;;;;;5.90;2.40;;;;;;;10.83;92.03;99899.31;5085897;28;20613;-88
2021/12/30 03:08:43;;;;;;;5.60;1.88;;;;;;;10.85;91.72;99902.69;5063570;28;20511;-88
2021/12/30 03:11:40;;;;;;;3.92;1.70;;;;;;;10.70;91.40;99909.34;5066253;28;20040;-89
2021/12/30 03:14:07;;;;;;;2.33;1.90;;;;;;;10.82;91.79;99910.94;4994460;28;20045;-88
2021/12/30 03:16:36;;;;;;;4.70;1.90;;;;;;;10.82;91.25;99922.38;5061541;28;20045;-89
2021/12/30 03:19:04;;;;;;;4.13;2.20;;;;;;;10.82;91.31;99932.19;5010078;28;20044;-89
2021/12/30 03:21:31;;;;;;;2.65;1.80;;;;;;;10.81;91.17;99931.34;5063568;28;20513;-89
2021/12/30 03:24:01;;;;;;;3.53;2.08;;;;;;;10.82;91.40;99934.84;5023978;28;22365;-89
2021/12/30 03:26:28;;;;;;;5.65;2.03;;;;;;;10.82;91.40;99946.31;5037266;28;20041;-88
2021/12/30 03:28:55;;;;;;;4.85;1.98;;;;;;;10.82;91.08;99943.63;5052991;28;20045;-89
2021/12/30 03:31:22;;;;;;;5.70;2.67;;;;;;;10.82;91.42;99934.84;5029377;28;20090;-88
2021/12/30 03:33:50;;;;;;;10.07;2.40;;;;;;;10.82;91.45;99937.50;5043744;28;20460;-88
2021/12/30 03:36:18;;;;;;;8.65;3.17;;;;;;;10.82;91.52;99935.66;5043120;28;20042;-89
2021/12/30 03:38:47;;;;;;;4.38;2.00;;;;;;;10.85;91.61;99943.38;5081970;28;20063;-88
2021/12/30 03:41:17;;;;;;;7.00;2.63;;;;;;;10.85;91.79;99951.34;5049407;28;20052;-89
2021/12/30 03:43:43;;;;;;;6.10;2.28;;;;;;;10.87;91.77;99948.56;5048399;28;20054;-88
2021/12/30 03:46:11;;;;;;;7.63;2.40;;;;;;;10.89;91.74;99956.38;5056045;28;20048;-88
2021/12/30 03:48:42;;;;;;;7.60;2.30;;;;;;;10.90;91.78;99960.72;5046514;28;20036;-89
2021/12/30 03:51:14;;;;;;;5.53;2.17;;;;;;;10.91;91.81;99957.09;5045397;28;20052;-89
2021/12/30 03:53:42;;;;;;;4.68;2.00;;;;;;;10.91;92.03;99965.88;5036951;28;20131;-88
2021/12/30 03:56:11;;;;;;;5.82;2.20;;;;;;;10.92;91.94;99958.78;5046780;28;20093;-88
2021/12/30 03:58:39;;;;;;;6.25;2.25;;;;;;;10.93;92.07;99971.09;5033453;28;20041;-89
2021/12/30 04:01:07;;;;;;;3.70;1.90;;;;;;;10.93;92.15;99971.91;5038194;28;20048;-89
2021/12/30 04:03:34;;;;;;;6.57;2.38;;;;;;;10.94;92.22;99973.63;5035177;28;20055;-88
2021/12/30 04:06:01;;;;;;;5.85;2.38;;;;;;;10.95;91.98;99969.13;5041275;28;20512;-88
2021/12/30 04:08:27;;;;;;;5.82;2.40;;;;;;;10.97;92.26;99970.69;5049778;28;20044;-89
2021/12/30 04:10:55;;;;;;;2.45;2.25;;;;;;;10.98;91.97;99974.16;5049131;28;20055;-88
2021/12/30 04:13:22;;;;;;;3.42;2.35;;;;;;;10.98;92.27;99976.84;5048531;28;20051;-89
2021/12/30 04:15:49;;;;;;;4.35;2.55;;;;;;;10.98;92.25;99975.00;5063068;28;20039;-89
2021/12/30 04:18:16;;;;;;;5.35;2.75;;;;;;;10.99;92.14;99975.84;5049136;28;20515;-88
2021/12/30 04:20:42;;;;;;;5.25;2.38;;;;;;;11.00;92.28;99986.34;5049664;28;20135;-89
2021/12/30 04:23:11;;;;;;;5.30;2.88;;;;;;;10.99;92.19;99992.66;5049983;28;20524;-88
2021/12/30 04:25:38;;;;;;;6.03;2.85;;;;;;;11.01;92.04;99995.16;5047846;28;20044;-89
2021/12/30 04:28:05;;;;;;;5.15;2.72;;;;;;;11.00;92.49;99996.97;5041857;28;20048;-89
2021/12/30 04:30:32;;;;;;;4.78;2.28;;;;;;;11.01;92.42;99992.50;5047759;28;20066;-89
2021/12/30 04:32:58;;;;;;;5.80;2.20;;;;;;;11.03;92.57;99991.38;5040306;28;20055;-88
2021/12/30 04:35:30;;;;;;;4.88;1.80;;;;;;;11.05;92.42;99991.25;5062165;28;20048;-89
2021/12/30 04:37:57;;;;;;;10.65;2.25;;;;;;;11.06;92.63;99993.78;5055477;28;20044;-88
2021/12/30 04:40:24;;;;;;;9.82;2.60;;;;;;;11.07;92.34;99995.47;5045445;28;20090;-88
2021/12/30 04:42:51;;;;;;;6.15;2.65;;;;;;;11.08;92.46;99998.97;5027114;28;20050;-88
2021/12/30 04:45:18;;;;;;;7.57;2.75;;;;;;;11.08;92.61;99999.78;5045000;28;20168;-88
2021/12/30 04:47:45;;;;;;;5.60;2.28;;;;;;;11.08;92.82;100005.13;5063159;28;20044;-89
2021/12/30 04:50:13;;;;;;;5.32;2.38;;;;;;;11.11;92.51;100011.97;5065288;28;20048;-89
2021/12/30 04:52:40;;;;;;;7.82;2.95;;;;;;;11.12;92.73;100016.34;5046547;28;20086;-88
2021/12/30 04:59:37;;;;;;;6.65;3.30;;;;;;;11.06;92.77;100011.53;5042993;28;20037;-87
2021/12/30 05:02:04;;;;;;;10.13;3.92;;;;;;;11.08;92.64;100018.41;5039558;28;20063;-88
2021/12/30 05:04:31;;;;;;;10.02;3.13;;;;;;;11.11;92.78;100027.09;5088678;28;20084;-88
2021/12/30 05:06:58;;;;;;;6.15;2.40;;;;;;;11.12;93.02;100020.78;5069455;28;20041;-88
2021/12/30 05:09:24;;;;;;;6.93;2.22;;;;;;;11.11;93.02;100019.94;5046774;28;20052;-88
2021/12/30 05:11:53;;;;;;;3.35;2.05;;;;;;;11.13;92.96;100022.47;5032979;28;20583;-88
2021/12/30 05:14:20;;;;;;;3.22;2.08;;;;;;;11.13;93.01;100020.66;5051705;28;20055;-89
2021/12/30 05:16:47;;;;;;;6.30;2.83;;;;;;;11.14;92.80;100018.84;5046807;28;20036;-88
2021/12/30 05:19:14;;;;;;;3.15;2.03;;;;;;;11.13;92.91;100018.00;5082604;28;20048;-88
2021/12/30 05:21:40;;;;;;;4.78;2.58;;;;;;;11.15;92.88;100024.03;5066326;28;20438;-88
2021/12/30 05:24:07;;;;;;;6.65;3.25;;;;;;;11.16;93.36;100027.53;5033352;28;20051;-88
2021/12/30 05:26:34;;;;;;;6.85;3.55;;;;;;;11.16;93.19;100020.38;5032933;28;20073;-88
2021/12/30 05:29:03;;;;;;;4.60;3.45;;;;;;;11.20;93.30;100024.47;5074320;28;20044;-89
2021/12/30 05:31:30;;;;;;;6.88;4.30;;;;;;;11.21;93.17;100019.97;5079170;28;20040;-88
2021/12/30 05:33:57;;;;;;;5.57;3.78;;;;;;;11.22;93.68;100021.66;5074285;28;20057;-88
2021/12/30 05:36:24;;;;;;;5.47;4.97;;;;;;;11.24;93.61;100025.03;5040918;28;20118;-88
2021/12/30 05:38:51;;;;;;;6.78;3.50;;;;;;;11.25;93.70;100024.91;5041740;28;20410;-88
2021/12/30 05:41:17;;;;;;;3.38;2.60;;;;;;;11.26;93.39;100025.72;5067316;28;20406;-88
2021/12/30 05:43:44;;;;;;;4.25;2.78;;;;;;;11.27;93.50;100030.94;5035816;28;20043;-88
2021/12/30 05:46:11;;;;;;;3.60;2.72;;;;;;;11.28;93.40;100032.59;5037627;28;20052;-89
2021/12/30 05:48:38;;;;;;;6.45;2.90;;;;;;;11.28;93.53;100024.63;5048444;28;20461;-88
2021/12/30 05:51:05;;;;;;;3.10;2.25;;;;;;;11.30;93.71;100033.31;5034960;28;20047;-88
2021/12/30 05:53:31;;;;;;;5.45;2.67;;;;;;;11.33;93.80;100031.34;5048545;28;20119;-88
2021/12/30 05:55:59;;;;;;;6.30;3.63;;;;;;;11.34;93.65;100036.53;5057617;28;20123;-87
2021/12/30 05:58:26;;;;;;;3.85;3.25;;;;;;;11.36;93.54;100031.09;5051960;28;20036;-89
2021/12/30 06:00:53;;;;;;;2.17;1.58;;;;;;;11.36;93.62;100039.91;5047545;28;20511;-88
2021/12/30 06:03:21;;;;;;;1.35;1.13;;;;;;;11.37;93.55;100035.41;5044949;28;20043;-88
2021/12/30 06:05:49;;;;;;;2.35;1.02;;;;;;;11.38;93.52;100031.78;5048666;28;20053;-88
2021/12/30 06:08:16;;;;;;;2.28;1.23;;;;;;;11.41;93.77;100048.31;5051106;28;20056;-88
2021/12/30 06:10:43;;;;;;;2.90;1.60;;;;;;;11.42;93.78;100046.47;5048120;28;20090;-88
2021/12/30 06:13:11;;;;;;;1.67;1.58;;;;;;;11.41;93.89;100042.16;5033953;28;20046;-88
2021/12/30 06:15:38;;;;;;;3.95;1.42;;;;;;;11.41;94.12;100052.78;5048361;28;20063;-88
2021/12/30 06:18:05;;;;;;;1.52;1.40;;;;;;;11.44;94.11;100045.38;5048266;28;20472;-88
2021/12/30 06:20:32;;;;;;;1.60;1.50;;;;;;;11.45;94.28;100048.91;5042551;28;20411;-88
2021/12/30 06:22:59;;;;;;;1.52;1.13;;;;;;;11.45;94.29;100052.38;5030319;28;20102;-89
2021/12/30 06:25:25;;;;;;;1.50;1.40;;;;;;;11.47;94.24;100057.56;5047053;28;20040;-88
2021/12/30 06:27:56;;;;;;;2.17;1.35;;;;;;;11.48;94.07;100061.91;5018123;28;20050;-88
2021/12/30 06:30:23;;;;;;;1.90;1.40;;;;;;;11.48;94.14;100057.44;5047129;28;20048;-88
2021/12/30 06:32:50;;;;;;;1.90;1.50;;;;;;;11.51;94.30;100059.81;5050942;28;20050;-88
2021/12/30 06:35:17;;;;;;;2.95;2.03;;;;;;;11.51;94.54;100058.97;5071949;28;20495;-88
2021/12/30 06:37:45;;;;;;;2.17;1.40;;;;;;;11.54;94.36;100061.34;5072643;28;20047;-88
2021/12/30 06:40:13;;;;;;;1.67;1.13;;;;;;;11.55;94.31;100062.19;5045435;28;20067;-88
2021/12/30 06:42:42;;;;;;;2.17;1.40;;;;;;;11.55;94.45;100075.47;5063708;28;20516;-86
2021/12/30 06:45:11;;;;;;;1.60;1.30;;;;;;;11.55;94.41;100072.81;5063852;28;20798;-86
2021/12/30 06:47:43;;;;;;;3.45;1.40;;;;;;;11.56;94.57;100083.34;5048537;28;20044;-86
2021/12/30 06:50:12;;;;;;;2.20;1.77;;;;;;;11.59;94.39;100090.22;5022555;28;20055;-86
2021/12/30 06:52:39;;;;;;;3.58;1.85;;;;;;;11.57;94.55;100086.84;5061486;28;20047;-86
2021/12/30 06:55:08;;;;;;;1.75;1.50;;;;;;;11.58;94.23;100091.19;5062980;28;20044;-86
2021/12/30 06:57:35;;;;;;;2.60;1.40;;;;;;;11.59;94.15;100103.50;5084021;28;20060;-86
2021/12/30 07:00:05;;;;;;;2.05;1.70;;;;;;;11.55;94.24;100105.59;5078319;28;20040;-85
2021/12/30 07:02:33;;;;;;;1.90;1.70;;;;;;;11.60;94.36;100106.03;5054329;28;20049;-86
2021/12/30 07:05:01;;;;;;;1.75;1.65;;;;;;;11.59;94.40;100106.16;5044481;28;20052;-86
2021/12/30 07:07:27;;;;;;;3.55;2.33;;;;;;;11.61;94.55;100112.19;5062726;28;20449;-85
2021/12/30 07:09:54;;;;;;;1.90;1.73;;;;;;;11.63;94.28;100120.88;5021560;28;20140;-86
2021/12/30 07:12:22;;;;;;;3.35;2.60;;;;;;;11.63;94.51;100121.72;5011098;28;20055;-86
2021/12/30 07:14:49;;;;;;;2.13;1.92;;;;;;;11.64;94.51;100122.56;5077421;28;20045;-85
2021/12/30 07:17:15;;;;;;;2.25;1.80;;;;;;;11.63;94.34;100121.72;5066067;28;20055;-86
2021/12/30 07:19:42;;;;;;;6.95;2.03;;;;;;;11.66;94.44;100129.44;5032139;28;20040;-85
2021/12/30 07:22:09;;;;;;;2.53;1.80;;;;;;;11.66;94.17;100134.75;5047628;28;20700;-85
2021/12/30 07:24:57;;;;;;;2.70;2.08;;;;;;;11.65;94.20;100135.72;5037036;28;20044;-86
2021/12/30 07:27:24;;;;;;;1.80;1.70;;;;;;;11.67;94.27;100138.25;5033578;28;20047;-86
2021/12/30 07:29:51;;;;;;;2.92;1.75;;;;;;;11.68;94.30;100145.25;5059815;28;20043;-85
2021/12/30 07:32:18;;;;;;;2.58;2.25;;;;;;;11.72;94.56;100144.81;5044830;28;20044;-86
2021/12/30 07:34:45;;;;;;;3.53;2.65;;;;;;;11.70;94.48;100140.63;5054297;28;20396;-86
2021/12/30 07:37:14;;;;;;;4.88;3.17;;;;;;;11.71;94.55;100140.50;5079250;28;20836;-86
2021/12/30 07:39:42;;;;;;;5.90;2.67;;;;;;;11.74;94.46;100147.38;5060804;28;20060;-85
2021/12/30 07:42:10;;;;;;;3.25;2.58;;;;;;;11.75;94.33;100151.69;5078907;28;20385;-86
2021/12/30 07:44:37;;;;;;;1.92;1.77;;;;;;;11.74;94.45;100158.00;5082432;28;20443;-86
2021/12/30 07:47:15;;;;;;;3.72;2.75;;;;;;;11.71;94.37;100148.47;5048284;28;20048;-86
2021/12/30 07:49:42;;;;;;;4.65;2.03;;;;;;;11.73;94.40;100148.34;5044841;28;20399;-85
2021/12/30 07:52:08;;;;;;;3.42;2.63;;;;;;;11.74;94.30;100155.34;5052076;28;20044;-85
2021/12/30 07:54:35;;;;;;;3.78;2.20;;;;;;;11.76;94.27;100158.72;5051050;28;20052;-85
2021/12/30 07:57:02;;;;;;;4.88;2.30;;;;;;;11.74;94.35;100163.31;5054843;28;20504;-86
2021/12/30 07:59:29;;;;;;;5.30;2.10;;;;;;;11.76;94.23;100169.38;5041718;28;20048;-86
2021/12/30 08:01:56;;;;;;;3.20;2.17;;;;;;;11.77;94.06;100165.72;5057782;28;20052;-85
2021/12/30 08:04:24;;;;;;;5.93;2.17;;;;;;;11.78;94.24;100167.41;5030804;28;20055;-86
2021/12/30 08:06:51;;;;;;;2.40;1.80;;;;;;;11.81;94.17;100163.66;5062552;28;20036;-86
2021/12/30 08:09:18;;;;;;;3.88;2.25;;;;;;;11.81;94.16;100163.66;5043890;28;20048;-86
2021/12/30 08:11:47;;;;;;;3.15;1.90;;;;;;;11.81;94.18;100161.81;5063939;28;20518;-86
2021/12/30 08:14:14;;;;;;;2.20;2.00;;;;;;;11.80;94.34;100176.06;5047530;28;20521;-86
2021/12/30 08:16:42;;;;;;;3.10;2.80;;;;;;;11.81;93.94;100172.47;5064294;28;20039;-86
2021/12/30 08:19:09;;;;;;;2.58;2.08;;;;;;;11.83;94.36;100173.16;5028357;28;20059;-86
2021/12/30 08:21:36;;;;;;;2.28;1.45;;;;;;;11.84;94.18;100180.16;5046928;28;20040;-86
2021/12/30 08:24:02;;;;;;;2.38;1.52;;;;;;;11.84;94.42;100188.16;5046542;28;20043;-86
2021/12/30 08:26:29;;;;;;;2.47;2.28;;;;;;;11.87;94.42;100192.38;5038322;28;20044;-86
2021/12/30 08:28:56;;;;;;;3.00;2.70;;;;;;;11.86;94.37;100186.22;5068222;28;20040;-86
2021/12/30 08:31:23;;;;;;;2.35;1.92;;;;;;;11.88;94.40;100191.41;5063301;28;20040;-85
2021/12/30 08:33:55;;;;;;;2.00;1.90;;;;;;;11.89;94.49;100199.25;5047610;28;20819;-86
2021/12/30 08:36:23;;;;;;;3.15;1.95;;;;;;;11.89;94.78;100199.25;5063790;28;20071;-86
2021/12/30 08:38:49;;;;;;;3.20;2.90;;;;;;;11.90;94.62;100200.09;5030656;28;20045;-92
2021/12/30 08:41:46;;;;;;;3.67;1.90;;;;;;;11.76;94.01;100203.94;5032327;28;20048;-92
2021/12/30 08:44:13;;;;;;;1.85;1.75;;;;;;;11.90;94.33;100200.09;4992343;28;20056;-87
2021/12/30 08:46:39;;;;;;;3.00;2.05;;;;;;;11.90;94.42;100195.59;5066574;28;20076;-87
2021/12/30 08:49:06;;;;;;;2.22;2.03;;;;;;;11.94;94.25;100193.53;5089941;28;20058;-87
2021/12/30 08:51:33;;;;;;;2.08;1.65;;;;;;;11.93;94.42;100198.03;5051474;28;20047;-87
2021/12/30 08:54:00;;;;;;;2.25;2.05;;;;;;;11.93;94.56;100200.69;5065862;28;20507;-85
2021/12/30 08:56:29;;;;;;;1.92;1.73;;;;;;;11.93;94.38;100195.38;5070683;28;20048;-87
2021/12/30 08:58:55;;;;;;;2.95;1.45;;;;;;;11.97;94.65;100190.59;5073032;28;20132;-88
2021/12/30 09:01:23;;;;;;;1.90;1.58;;;;;;;11.96;94.65;100199.56;5074010;28;20071;-87
2021/12/30 09:03:50;;;;;;;2.22;1.73;;;;;;;12.00;94.43;100197.47;5066900;28;20044;-87
2021/12/30 09:06:17;;;;;;;4.57;2.10;;;;;;;12.00;94.79;100198.31;5062880;28;20048;-87
2021/12/30 09:08:44;;;;;;;2.60;2.25;;;;;;;12.02;94.68;100199.00;5083572;28;20517;-87
2021/12/30 09:11:11;;;;;;;4.90;3.58;;;;;;;12.04;94.83;100197.06;5035612;28;20075;-87
2021/12/30 09:13:43;;;;;;;3.92;2.88;;;;;;;12.01;94.89;100194.69;5050058;28;20396;-87
2021/12/30 09:16:10;;;;;;;5.67;2.10;;;;;;;12.04;95.02;100197.06;5049858;28;20044;-87
2021/12/30 09:18:36;;;;;;;2.95;1.80;;;;;;;12.08;95.19;100213.59;5071527;28;20446;-87
2021/12/30 09:21:03;;;;;;;2.00;1.80;;;;;;;12.09;95.19;100212.63;5052251;28;20044;-84
2021/12/30 09:23:30;;;;;;;1.17;1.00;;;;;;;12.12;94.77;100210.53;5055630;28;20040;-87
2021/12/30 09:25:57;;;;;;;1.42;0.90;;;;;;;12.10;94.74;100215.13;5070851;28;20052;-87
2021/12/30 09:28:24;;;;;;;3.15;1.00;;;;;;;12.11;94.94;100221.31;5073939;28;20504;-88
2021/12/30 09:30:51;;;;;;;2.33;1.80;;;;;;;12.12;94.54;100226.50;5054159;28;20495;-87
2021/12/30 09:33:18;;;;;;;1.55;1.10;;;;;;;12.13;94.70;100237.97;5070073;28;20078;-88
2021/12/30 09:35:49;;;;;;;1.88;1.50;;;;;;;12.14;94.52;100240.53;5046020;28;20044;-88
2021/12/30 09:38:18;;;;;;;2.50;0.90;;;;;;;12.13;94.39;100237.97;5068893;28;20044;-86
2021/12/30 09:40:46;;;;;;;0.70;0.70;;;;;;;12.15;94.50;100234.22;5088005;28;20486;-87
2021/12/30 09:43:13;;;;;;;1.40;0.93;;;;;;;12.26;94.57;100241.25;5054201;28;20054;-87
2021/12/30 09:45:41;;;;;;;1.33;1.23;;;;;;;12.19;94.31;100258.75;5087277;28;20059;-88
2021/12/30 09:48:11;;;;;;;2.20;1.10;;;;;;;12.16;94.46;100251.00;5070487;28;20047;-87
2021/12/30 09:50:42;;;;;;;4.90;1.95;;;;;;;12.19;94.55;100247.25;5087598;28;20044;-85
2021/12/30 09:53:09;;;;;;;3.25;1.50;;;;;;;12.22;94.34;100257.66;5084582;28;20060;-87
2021/12/30 09:55:37;;;;;;;4.35;1.50;;;;;;;12.21;94.49;100256.78;5079026;28;20514;-87
2021/12/30 09:58:04;;;;;;;3.75;1.00;;;;;;;12.22;94.29;100253.16;5067581;28;20057;-87
2021/12/30 10:00:31;;;;;;;1.40;1.23;;;;;;;12.22;94.52;100260.31;5051744;28;20373;-87
2021/12/30 10:02:58;;;;;;;2.95;1.60;;;;;;;12.20;94.66;100252.44;5045092;28;20172;-87
2021/12/30 10:05:28;;;;;;;1.52;1.42;;;;;;;12.21;94.73;100263.94;5050804;28;20040;-87
2021/12/30 10:08:15;;;;;;;1.60;1.50;;;;;;;12.20;94.22;100262.25;5083466;28;20046;-87
2021/12/30 10:10:44;;;;;;;1.45;1.30;;;;;;;12.32;94.18;100250.53;5029307;28;20402;-86
2021/12/30 10:13:17;;;;;;;1.80;1.05;;;;;;;12.25;94.13;100255.53;5061865;28;20044;-87
2021/12/30 10:15:45;;;;;;;3.05;2.20;;;;;;;12.26;94.89;100251.91;5048349;28;20154;-87
2021/12/30 10:18:12;;;;;;;6.57;2.42;;;;;;;12.26;94.80;100254.56;5056452;28;20040;-86
2021/12/30 10:20:40;;;;;;;1.60;1.50;;;;;;;12.29;94.37;100254.31;5063439;28;20072;-87
2021/12/30 10:23:08;;;;;;;2.20;1.70;;;;;;;12.32;94.42;100269.16;5072975;28;20052;-87
2021/12/30 10:25:37;;;;;;;1.70;1.60;;;;;;;12.30;94.63;100263.13;5075352;28;20081;-88
2021/12/30 10:28:27;;;;;;;4.70;2.20;;;;;;;12.25;94.05;100263.53;5048989;28;20043;-87
2021/12/30 10:30:58;;;;;;;2.17;1.98;;;;;;;12.33;94.47;100255.69;5056145;28;20052;-87
2021/12/30 10:33:27;;;;;;;2.17;2.00;;;;;;;12.37;94.44;100264.25;5061693;28;20045;-88
2021/12/30 10:35:54;;;;;;;2.03;1.83;;;;;;;12.39;94.23;100257.00;5063152;28;20064;-86
2021/12/30 10:38:22;;;;;;;3.42;1.95;;;;;;;12.38;94.34;100269.44;5062797;28;20400;-87
2021/12/30 10:40:53;;;;;;;2.20;2.00;;;;;;;12.36;94.32;100260.78;5046283;28;20041;-88
2021/12/30 10:43:34;;;;;;;2.88;1.85;;;;;;;12.35;94.09;100256.41;5065376;28;20592;-87
2021/12/30 10:46:02;;;;;;;2.40;2.20;;;;;;;12.40;94.31;100256.00;5049428;28;20054;-88
2021/12/30 10:48:30;;;;;;;4.43;2.08;;;;;;;12.43;94.57;100258.38;5081650;28;20047;-87
2021/12/30 10:51:10;;;;;;;2.15;1.95;;;;;;;12.34;94.04;100254.72;5033098;28;20047;-88
2021/12/30 10:53:38;;;;;;;1.95;1.77;;;;;;;12.44;94.47;100254.75;5054097;28;20560;-87
2021/12/30 10:56:38;;;;;;;5.28;2.08;;;;;;;12.36;94.39;100251.91;5084818;28;20139;-87
2021/12/30 10:59:10;;;;;;;3.42;1.83;;;;;;;12.42;94.44;100256.72;5045746;28;20044;-87
2021/12/30 11:01:39;;;;;;;3.20;1.85;;;;;;;12.47;94.46;100254.47;5042978;28;20120;-85
2021/12/30 11:04:06;;;;;;;3.22;1.65;;;;;;;12.50;94.68;100253.34;5079105;28;20128;-87
2021/12/30 11:06:35;;;;;;;3.35;2.13;;;;;;;12.50;94.66;100258.69;5074140;28;20055;-87
2021/12/30 11:09:18;;;;;;;3.33;1.92;;;;;;;12.49;94.51;100247.19;5029408;28;20503;-87
2021/12/30 11:11:48;;;;;;;2.30;1.92;;;;;;;12.51;94.61;100255.88;5011700;28;20048;-88
2021/12/30 11:14:23;;;;;;;2.20;1.55;;;;;;;12.50;94.22;100254.19;5077287;28;20534;-87
2021/12/30 11:17:09;;;;;;;1.35;1.25;;;;;;;12.47;94.31;100253.63;5030889;28;20127;-87
2021/12/30 11:19:40;;;;;;;2.38;1.40;;;;;;;12.55;94.53;100259.13;5064113;28;20429;-88
2021/12/30 11:22:10;;;;;;;2.42;1.40;;;;;;;12.57;94.44;100262.50;5040556;28;20066;-87
2021/12/30 11:24:37;;;;;;;1.92;1.60;;;;;;;12.57;94.59;100259.81;5077681;28;20040;-88
2021/12/30 11:27:05;;;;;;;2.70;1.48;;;;;;;12.58;94.55;100259.66;5040916;28;20094;-87
2021/12/30 11:29:34;;;;;;;3.15;1.92;;;;;;;12.62;94.52;100259.38;5060587;28;20728;-87
2021/12/30 11:32:01;;;;;;;2.45;1.60;;;;;;;12.67;94.72;100255.34;5075722;28;20572;-85
2021/12/30 11:34:29;;;;;;;4.53;1.15;;;;;;;12.65;94.38;100251.13;5049062;28;21628;-90
2021/12/30 11:37:26;;;;;;;1.38;1.27;;;;;;;12.52;94.34;100256.72;5052038;28;20121;-90
2021/12/30 11:39:55;;;;;;;1.92;1.42;;;;;;;12.66;94.29;100261.63;5050277;28;20368;-90
2021/12/30 11:42:37;;;;;;;6.65;2.40;;;;;;;12.57;94.05;100255.34;5071215;28;20055;-91
2021/12/30 11:45:22;;;;;;;3.65;2.90;;;;;;;12.56;94.14;100261.63;5033435;28;20071;-89
2021/12/30 11:47:49;;;;;;;3.22;1.40;;;;;;;12.66;94.65;100258.13;5063451;28;20040;-91
2021/12/30 11:50:26;;;;;;;1.20;1.10;;;;;;;12.66;94.55;100252.81;5027778;28;20047;-90